LGKO/KGS METAR and TAF weather

Enter ICAO airport designator
Station Type Date Time Source
LGKO METAR 2019/10/23 20:20 UTC NOAA

LGKO 232020Z 34006KT CAVOK 21/18 Q1014


Station Type Date Time Source
LGKO Decoded METAR 2019/10/23 20:20 UTC NOAA

Kos Airport , Greece (LGKO) 36-47N 027-04E
Oct 23, 2019 - 04:20 PM EDT / 2019.10.23 2020 UTC
Wind: from the NNW (340 degrees) at 7 MPH (6 KT):0
Visibility: greater than 7 mile(s):0
Temperature: 69 F (21 C)
Dew Point: 64 F (18 C)
Relative Humidity: 82%
Pressure (altimeter): 29.94 in. Hg (1014 hPa)
ob: LGKO 232020Z 34006KT CAVOK 21/18 Q1014
cycle: 20

Station Type Date Time Source
LGKO TAF 2019/10/23 18:16 UTC NOAA

TAF LGKO 231700Z 2318/2418 36014KT 9999 FEW020

Example: see airport list